createdAt,value
2019-05-22T00:00:03.864Z,13.37
2019-05-22T00:01:03.850Z,13.33
2019-05-22T00:02:03.839Z,13.30
2019-05-22T00:03:03.935Z,13.32
2019-05-22T00:04:03.818Z,13.33
2019-05-22T00:05:03.817Z,13.30
2019-05-22T00:06:03.799Z,13.29
2019-05-22T00:07:03.784Z,13.33
2019-05-22T00:08:03.779Z,13.30
2019-05-22T00:09:03.763Z,13.27
2019-05-22T00:10:03.754Z,13.20
2019-05-22T00:11:03.757Z,13.22
2019-05-22T00:12:03.728Z,13.22
2019-05-22T00:13:03.722Z,13.25
2019-05-22T00:14:03.710Z,13.18
2019-05-22T00:15:03.866Z,13.22
2019-05-22T00:16:03.685Z,13.24
2019-05-22T00:17:03.685Z,13.24
2019-05-22T00:18:03.746Z,13.22
2019-05-22T00:19:03.665Z,13.17
2019-05-22T00:20:03.640Z,13.20
2019-05-22T00:21:03.662Z,13.24
2019-05-22T00:22:03.620Z,13.14
2019-05-22T00:23:03.621Z,13.18
2019-05-22T00:24:03.598Z,13.29
2019-05-22T00:25:03.588Z,13.30
2019-05-22T00:26:03.576Z,13.27
2019-05-22T00:27:03.567Z,13.27
2019-05-22T00:28:03.560Z,13.29
2019-05-22T00:29:03.554Z,13.30
2019-05-22T00:30:03.532Z,13.27
2019-05-22T00:31:03.522Z,13.24
2019-05-22T00:32:03.511Z,13.17
2019-05-22T00:33:03.503Z,13.15
2019-05-22T00:34:03.488Z,13.20
2019-05-22T00:35:03.504Z,13.21
2019-05-22T00:36:03.468Z,13.27
2019-05-22T00:37:03.459Z,13.12
2019-05-22T00:38:03.513Z,13.12
2019-05-22T00:39:03.435Z,13.14
2019-05-22T00:40:03.425Z,13.20
2019-05-22T00:41:03.423Z,13.20
2019-05-22T00:42:03.403Z,13.12
2019-05-22T00:43:10.822Z,13.11
2019-05-22T00:44:04.379Z,13.02
2019-05-22T00:45:03.372Z,13.06
2019-05-22T00:46:03.362Z,13.07
2019-05-22T00:47:03.362Z,13.07
2019-05-22T00:48:03.339Z,13.00
2019-05-22T00:49:03.326Z,12.95
2019-05-22T00:50:03.319Z,12.96
2019-05-22T00:51:03.315Z,12.95
2019-05-22T00:52:03.294Z,13.00
2019-05-22T00:53:03.293Z,12.99
2019-05-22T00:54:03.274Z,13.04
2019-05-22T00:55:03.265Z,12.93
2019-05-22T00:56:03.263Z,13.03
2019-05-22T00:57:03.241Z,12.96
2019-05-22T00:58:03.230Z,13.07
2019-05-22T00:59:03.232Z,12.93
2019-05-22T01:00:03.209Z,12.96
2019-05-22T01:01:03.210Z,12.97
2019-05-22T01:02:03.296Z,12.97
2019-05-22T01:03:03.176Z,12.92
2019-05-22T01:04:03.168Z,12.89
2019-05-22T01:05:03.174Z,12.88
2019-05-22T01:06:03.159Z,12.88
2019-05-22T01:07:03.140Z,12.89
2019-05-22T01:08:03.129Z,12.89
2019-05-22T01:09:03.115Z,12.82
2019-05-22T01:10:04.149Z,12.87
2019-05-22T01:11:03.102Z,12.82
2019-05-22T01:12:03.700Z,12.85
2019-05-22T01:13:03.067Z,12.97
2019-05-22T01:14:03.057Z,12.82
2019-05-22T01:15:03.594Z,12.82
2019-05-22T01:16:03.036Z,13.00
2019-05-22T01:17:03.038Z,13.00
2019-05-22T01:18:03.015Z,12.99
2019-05-22T01:19:03.005Z,12.85
2019-05-22T01:20:02.997Z,12.93
2019-05-22T01:21:02.981Z,12.84
2019-05-22T01:22:02.972Z,12.88
2019-05-22T01:23:02.974Z,12.97
2019-05-22T01:24:02.951Z,12.88
2019-05-22T01:25:02.942Z,12.93
2019-05-22T01:26:02.936Z,12.97
2019-05-22T01:27:02.918Z,13.00
2019-05-22T01:28:02.929Z,12.95
2019-05-22T01:29:03.053Z,12.97
2019-05-22T01:30:02.900Z,12.99
2019-05-22T01:31:02.882Z,12.96
2019-05-22T01:32:02.865Z,13.03
2019-05-22T01:33:02.854Z,12.96
2019-05-22T01:34:02.844Z,13.03
2019-05-22T01:35:02.842Z,13.00
2019-05-22T01:36:02.823Z,12.97
2019-05-22T01:37:02.812Z,12.93
2019-05-22T01:38:02.802Z,12.99
2019-05-22T01:39:02.999Z,13.02
2019-05-22T01:40:02.781Z,12.97
2019-05-22T01:41:02.780Z,12.87
2019-05-22T01:42:02.757Z,12.87
2019-05-22T01:43:02.749Z,12.88
2019-05-22T01:44:02.747Z,12.93
2019-05-22T01:45:06.472Z,12.97
2019-05-22T01:46:02.715Z,12.95
2019-05-22T01:47:02.716Z,12.87
2019-05-22T01:48:02.697Z,12.92
2019-05-22T01:49:02.682Z,12.87
2019-05-22T01:50:02.680Z,12.88
2019-05-22T01:51:02.794Z,12.92
2019-05-22T01:52:02.649Z,12.92
2019-05-22T01:53:02.653Z,12.82
2019-05-22T01:54:02.633Z,12.78
2019-05-22T01:55:02.626Z,12.85
2019-05-22T01:56:02.947Z,12.84
2019-05-22T01:57:02.596Z,12.84
2019-05-22T01:58:02.587Z,12.79
2019-05-22T01:59:02.585Z,12.79
2019-05-22T02:00:02.567Z,12.85
2019-05-22T02:01:02.616Z,12.78
2019-05-22T02:02:02.603Z,12.84
2019-05-22T02:03:02.533Z,12.84
2019-05-22T02:04:02.526Z,12.88
2019-05-22T02:05:02.519Z,12.78
2019-05-22T02:06:02.500Z,12.81
2019-05-22T02:07:02.489Z,12.79
2019-05-22T02:08:02.494Z,12.82
2019-05-22T02:09:02.473Z,12.84
2019-05-22T02:10:02.975Z,12.87
2019-05-22T02:11:02.470Z,12.81
2019-05-22T02:12:02.437Z,12.81
2019-05-22T02:13:02.424Z,12.79
2019-05-22T02:14:02.414Z,12.71
2019-05-22T02:15:02.404Z,12.79
2019-05-22T02:16:02.391Z,12.82
2019-05-22T02:17:02.394Z,12.67
2019-05-22T02:18:02.372Z,12.85
2019-05-22T02:19:02.395Z,12.74
2019-05-22T02:20:02.495Z,12.85
2019-05-22T02:21:02.339Z,12.84
2019-05-22T02:22:02.328Z,12.78
2019-05-22T02:23:02.327Z,12.78
2019-05-22T02:24:02.310Z,12.69
2019-05-22T02:25:02.298Z,12.77
2019-05-22T02:26:02.287Z,12.70
2019-05-22T02:27:02.751Z,12.71
2019-05-22T02:28:02.265Z,12.78
2019-05-22T02:29:02.264Z,12.70
2019-05-22T02:30:02.328Z,12.77
2019-05-22T02:31:02.234Z,12.77
2019-05-22T02:32:02.232Z,12.67
2019-05-22T02:33:02.211Z,12.66
2019-05-22T02:34:02.208Z,12.62
2019-05-22T02:35:02.208Z,12.64
2019-05-22T02:36:02.184Z,12.60
2019-05-22T02:37:02.168Z,12.62
2019-05-22T02:38:02.163Z,12.54
2019-05-22T02:39:02.151Z,12.60
2019-05-22T02:40:02.143Z,12.52
2019-05-22T02:41:02.138Z,12.48
2019-05-22T02:42:02.115Z,12.49
2019-05-22T02:43:02.112Z,12.59
2019-05-22T02:44:02.108Z,12.48
2019-05-22T02:45:02.147Z,12.56
2019-05-22T02:46:02.070Z,12.52
2019-05-22T02:47:17.757Z,12.54
2019-05-22T02:48:03.050Z,12.39
2019-05-22T02:49:02.039Z,12.41
2019-05-22T02:50:02.041Z,12.42
2019-05-22T02:51:02.023Z,12.29
2019-05-22T02:52:02.018Z,12.31
2019-05-22T02:53:02.016Z,12.39
2019-05-22T02:54:01.987Z,12.29
2019-05-22T02:55:01.978Z,12.24
2019-05-22T02:56:01.969Z,12.30
2019-05-22T02:57:01.953Z,12.37
2019-05-22T02:58:01.942Z,12.23
2019-05-22T02:59:01.952Z,12.27
2019-05-22T03:00:01.921Z,12.31
2019-05-22T03:01:01.940Z,12.31
2019-05-22T03:02:01.902Z,12.30
2019-05-22T03:03:01.889Z,12.27
2019-05-22T03:04:01.877Z,12.24
2019-05-22T03:05:02.093Z,12.26
2019-05-22T03:06:01.854Z,12.29
2019-05-22T03:07:01.842Z,12.24
2019-05-22T03:08:01.835Z,12.27
2019-05-22T03:09:01.860Z,12.30
2019-05-22T03:10:01.894Z,12.30
2019-05-22T03:11:01.811Z,12.27
2019-05-22T03:12:01.790Z,12.27
2019-05-22T03:13:01.789Z,12.26
2019-05-22T03:14:01.793Z,12.24
2019-05-22T03:15:01.756Z,12.29
2019-05-22T03:16:01.745Z,12.33
2019-05-22T03:17:01.745Z,12.24
2019-05-22T03:18:01.728Z,12.26
2019-05-22T03:19:09.024Z,12.23
2019-05-22T03:20:02.710Z,12.24
2019-05-22T03:21:01.690Z,12.27
2019-05-22T03:22:01.678Z,12.30
2019-05-22T03:23:01.681Z,12.29
2019-05-22T03:24:01.659Z,12.21
2019-05-22T03:25:01.647Z,12.26
2019-05-22T03:26:01.637Z,12.27
2019-05-22T03:27:01.627Z,12.39
2019-05-22T03:28:01.629Z,12.45
2019-05-22T03:29:01.616Z,12.33
2019-05-22T03:30:01.727Z,12.39
2019-05-22T03:31:01.585Z,12.33
2019-05-22T03:32:01.591Z,12.42
2019-05-22T03:33:01.562Z,12.38
2019-05-22T03:34:01.553Z,12.39
2019-05-22T03:35:01.573Z,12.24
2019-05-22T03:36:01.550Z,12.26
2019-05-22T03:37:01.532Z,12.26
2019-05-22T03:38:01.509Z,12.30
2019-05-22T03:39:01.586Z,12.24
2019-05-22T03:40:01.487Z,12.24
2019-05-22T03:41:01.491Z,12.29
2019-05-22T03:42:01.463Z,12.30
2019-05-22T03:43:01.451Z,12.31
2019-05-22T03:44:01.441Z,12.29
2019-05-22T03:45:01.452Z,12.29
2019-05-22T03:46:01.433Z,12.26
2019-05-22T03:47:01.426Z,12.15
2019-05-22T03:48:01.400Z,12.20
2019-05-22T03:49:01.387Z,12.19
2019-05-22T03:50:01.386Z,12.27
2019-05-22T03:51:01.366Z,12.16
2019-05-22T03:52:01.362Z,12.20
2019-05-22T03:53:01.357Z,12.16
2019-05-22T03:54:01.332Z,12.11
2019-05-22T03:55:01.324Z,12.04
2019-05-22T03:56:01.309Z,12.20
2019-05-22T03:57:01.301Z,12.13
2019-05-22T03:58:01.290Z,12.06
2019-05-22T03:59:01.289Z,12.05
2019-05-22T04:00:01.267Z,12.06
2019-05-22T04:01:01.293Z,12.09
2019-05-22T04:02:01.249Z,12.09
2019-05-22T04:03:01.239Z,12.06
2019-05-22T04:04:01.225Z,12.01
2019-05-22T04:05:01.223Z,12.04
2019-05-22T04:06:01.204Z,12.02
2019-05-22T04:07:01.192Z,12.08
2019-05-22T04:08:01.190Z,12.04
2019-05-22T04:09:01.169Z,12.02
2019-05-22T04:10:01.174Z,12.02
2019-05-22T04:11:01.186Z,12.02
2019-05-22T04:12:01.139Z,11.97
2019-05-22T04:13:01.126Z,11.94
2019-05-22T04:14:01.122Z,11.93
2019-05-22T04:15:01.103Z,11.97
2019-05-22T04:16:01.094Z,12.02
2019-05-22T04:17:01.090Z,12.02
2019-05-22T04:18:01.071Z,12.06
2019-05-22T04:19:01.063Z,11.94
2019-05-22T04:20:01.046Z,11.86
2019-05-22T04:21:01.038Z,11.93
2019-05-22T04:22:01.028Z,11.90
2019-05-22T04:23:01.027Z,11.89
2019-05-22T04:24:01.018Z,11.93
2019-05-22T04:25:00.993Z,11.93
2019-05-22T04:26:00.989Z,11.87
2019-05-22T04:27:00.971Z,11.83
2019-05-22T04:28:00.962Z,12.05
2019-05-22T04:29:00.970Z,12.05
2019-05-22T04:30:00.940Z,11.99
2019-05-22T04:31:00.932Z,11.99
2019-05-22T04:32:00.915Z,12.01
2019-05-22T04:33:00.906Z,12.04
2019-05-22T04:34:00.896Z,11.99
2019-05-22T04:35:00.898Z,12.01
2019-05-22T04:36:00.874Z,11.97
2019-05-22T04:37:00.861Z,11.96
2019-05-22T04:38:00.868Z,11.97
2019-05-22T04:39:00.849Z,11.97
2019-05-22T04:40:00.830Z,11.94
2019-05-22T04:41:00.841Z,11.93
2019-05-22T04:42:00.809Z,12.01
2019-05-22T04:43:00.799Z,12.02
2019-05-22T04:44:00.784Z,11.99
2019-05-22T04:45:00.774Z,12.02
2019-05-22T04:46:00.773Z,12.04
2019-05-22T04:47:00.764Z,12.15
2019-05-22T04:48:00.750Z,12.11
2019-05-22T04:49:00.735Z,12.06
2019-05-22T04:50:07.606Z,12.08
2019-05-22T04:51:01.709Z,12.09
2019-05-22T04:52:00.708Z,12.15
2019-05-22T04:53:00.726Z,12.09
2019-05-22T04:54:00.704Z,12.15
2019-05-22T04:55:00.666Z,12.13
2019-05-22T04:56:00.654Z,12.11
2019-05-22T04:57:00.644Z,12.12
2019-05-22T04:58:00.632Z,12.11
2019-05-22T04:59:00.631Z,12.15
2019-05-22T05:00:00.610Z,12.15
2019-05-22T05:01:00.599Z,12.16
2019-05-22T05:02:00.594Z,12.21
2019-05-22T05:03:00.576Z,12.21
2019-05-22T05:04:00.565Z,12.21
2019-05-22T05:05:00.568Z,12.21
2019-05-22T05:06:00.545Z,12.26
2019-05-22T05:07:00.531Z,12.20
2019-05-22T05:08:00.521Z,12.26
2019-05-22T05:09:00.510Z,12.27
2019-05-22T05:10:00.499Z,12.21
2019-05-22T05:11:00.500Z,12.24
2019-05-22T05:12:00.478Z,12.24
2019-05-22T05:13:00.471Z,12.27
2019-05-22T05:14:00.458Z,12.37
2019-05-22T05:15:00.449Z,12.26
2019-05-22T05:16:00.435Z,12.29
2019-05-22T05:17:00.433Z,12.29
2019-05-22T05:18:00.412Z,12.23
2019-05-22T05:19:00.407Z,12.26
2019-05-22T05:20:00.393Z,12.27
2019-05-22T05:21:00.380Z,12.29
2019-05-22T05:22:00.371Z,12.26
2019-05-22T05:23:00.376Z,12.27
2019-05-22T05:24:00.346Z,12.33
2019-05-22T05:25:00.336Z,12.29
2019-05-22T05:26:00.325Z,12.31
2019-05-22T05:27:00.315Z,12.30
2019-05-22T05:28:00.303Z,12.30
2019-05-22T05:29:00.308Z,12.29
2019-05-22T05:30:00.283Z,12.37
2019-05-22T05:31:00.271Z,12.31
2019-05-22T05:32:00.261Z,12.37
2019-05-22T05:33:00.251Z,12.44
2019-05-22T05:34:00.241Z,12.42
2019-05-22T05:35:00.241Z,12.48
2019-05-22T05:36:00.218Z,12.52
2019-05-22T05:37:00.207Z,12.54
2019-05-22T05:38:00.201Z,12.59
2019-05-22T05:39:00.186Z,12.54
2019-05-22T05:40:00.178Z,12.64
2019-05-22T05:41:00.178Z,12.57
2019-05-22T05:42:00.155Z,12.59
2019-05-22T05:43:00.141Z,12.57
2019-05-22T05:44:00.131Z,12.60
2019-05-22T05:45:00.122Z,12.64
2019-05-22T05:46:00.110Z,12.67
2019-05-22T05:47:00.120Z,12.67
2019-05-22T05:48:00.088Z,12.74
2019-05-22T05:49:00.088Z,12.67
2019-05-22T05:50:00.067Z,12.64
2019-05-22T05:51:00.057Z,12.57
2019-05-22T05:52:00.045Z,12.60
2019-05-22T05:53:00.066Z,12.67
2019-05-22T05:54:00.025Z,12.63
2019-05-22T05:55:00.013Z,12.71
2019-05-22T05:56:00.005Z,12.75
2019-05-22T05:56:59.991Z,12.79
2019-05-22T05:57:59.982Z,12.62
2019-05-22T05:58:59.981Z,12.63
2019-05-22T05:59:59.960Z,12.64
2019-05-22T06:00:59.949Z,12.67
2019-05-22T06:01:59.937Z,12.64
2019-05-22T06:02:59.926Z,12.64
2019-05-22T06:03:59.915Z,12.59
2019-05-22T06:04:59.915Z,12.63
2019-05-22T06:05:59.893Z,12.66
2019-05-22T06:07:01.321Z,12.51
2019-05-22T06:07:59.873Z,12.51
2019-05-22T06:08:59.862Z,12.46
2019-05-22T06:09:59.852Z,12.45
2019-05-22T06:10:59.851Z,12.37
2019-05-22T06:11:59.828Z,12.27
2019-05-22T06:12:59.817Z,12.31
2019-05-22T06:13:59.809Z,12.09
2019-05-22T06:14:59.797Z,12.11
2019-05-22T06:15:59.786Z,12.16
2019-05-22T06:16:59.787Z,12.16
2019-05-22T06:17:59.763Z,12.26
2019-05-22T06:18:59.753Z,12.21
2019-05-22T06:19:59.743Z,12.20
2019-05-22T06:21:03.849Z,12.30
2019-05-22T06:21:59.720Z,12.27
2019-05-22T06:22:59.719Z,12.26
2019-05-22T06:23:59.698Z,12.34
2019-05-22T06:24:59.699Z,12.29
2019-05-22T06:25:59.677Z,12.26
2019-05-22T06:26:59.666Z,12.26
2019-05-22T06:27:59.655Z,12.19
2019-05-22T06:28:59.658Z,12.24
2019-05-22T06:29:59.634Z,12.27
2019-05-22T06:30:59.623Z,12.24
2019-05-22T06:31:59.613Z,12.29
2019-05-22T06:32:59.602Z,12.26
2019-05-22T06:33:59.592Z,12.30
2019-05-22T06:34:59.851Z,12.26
2019-05-22T06:35:59.570Z,12.29
2019-05-22T06:36:59.570Z,12.23
2019-05-22T06:37:59.548Z,12.38
2019-05-22T06:38:59.538Z,12.38
2019-05-22T06:39:59.585Z,12.42
2019-05-22T06:40:59.526Z,12.42
2019-05-22T06:41:59.511Z,12.39
2019-05-22T06:42:59.496Z,12.27
2019-05-22T06:43:59.483Z,12.27
2019-05-22T06:44:59.473Z,12.30
2019-05-22T06:45:59.461Z,12.27
2019-05-22T06:46:59.477Z,12.31
2019-05-22T06:47:59.451Z,12.30
2019-05-22T06:48:59.431Z,12.31
2019-05-22T06:49:59.474Z,12.26
2019-05-22T06:50:59.411Z,12.29
2019-05-22T06:51:59.400Z,12.30
2019-05-22T06:53:09.301Z,12.45
2019-05-22T06:54:00.374Z,12.39
2019-05-22T06:54:59.366Z,12.42
2019-05-22T06:55:59.356Z,12.44
2019-05-22T06:56:59.344Z,12.48
2019-05-22T06:57:59.333Z,12.38
2019-05-22T06:58:59.332Z,12.44
2019-05-22T07:00:13.526Z,12.45
2019-05-22T07:01:00.300Z,12.44
2019-05-22T07:02:01.329Z,12.49
2019-05-22T07:02:59.279Z,12.46
2019-05-22T07:03:59.268Z,12.54
2019-05-22T07:04:59.269Z,12.64
2019-05-22T07:05:59.265Z,12.63
2019-05-22T07:06:59.277Z,12.77
2019-05-22T07:07:59.224Z,12.77
2019-05-22T07:08:59.219Z,12.77
2019-05-22T07:09:59.201Z,12.79
2019-05-22T07:10:59.247Z,12.77
2019-05-22T07:11:59.179Z,12.67
2019-05-22T07:12:59.167Z,12.66
2019-05-22T07:13:59.158Z,12.62
2019-05-22T07:14:59.147Z,12.71
2019-05-22T07:15:59.135Z,12.71
2019-05-22T07:16:59.141Z,12.70
2019-05-22T07:17:59.115Z,12.70
2019-05-22T07:18:59.101Z,12.77
2019-05-22T07:19:59.090Z,12.71
2019-05-22T07:20:59.079Z,12.75
2019-05-22T07:21:59.069Z,12.75
2019-05-22T07:22:59.232Z,12.81
2019-05-22T07:23:59.045Z,12.70
2019-05-22T07:24:59.035Z,12.85
2019-05-22T07:25:59.025Z,12.82
2019-05-22T07:26:59.013Z,12.85
2019-05-22T07:27:59.004Z,12.84
2019-05-22T07:29:02.735Z,12.71
2019-05-22T07:29:59.981Z,12.81
2019-05-22T07:30:58.970Z,12.78
2019-05-22T07:32:02.072Z,12.71
2019-05-22T07:32:58.948Z,12.71
2019-05-22T07:33:58.936Z,12.67
2019-05-22T07:34:58.990Z,12.71
2019-05-22T07:36:09.845Z,12.67
2019-05-22T07:36:59.902Z,12.75
2019-05-22T07:37:58.891Z,12.70
2019-05-22T07:38:58.881Z,12.77
2019-05-22T07:39:58.877Z,12.74
2019-05-22T07:40:58.878Z,12.75
2019-05-22T07:41:58.848Z,12.74
2019-05-22T07:42:58.837Z,12.74
2019-05-22T07:43:58.843Z,12.74
2019-05-22T07:44:58.829Z,12.67
2019-05-22T07:45:58.831Z,12.74
2019-05-22T07:46:58.804Z,12.85
2019-05-22T07:47:58.795Z,12.78
2019-05-22T07:48:58.770Z,12.81
2019-05-22T07:49:58.760Z,12.84
2019-05-22T07:50:58.808Z,12.89
2019-05-22T07:52:01.770Z,12.88
2019-05-22T07:52:58.742Z,13.02
2019-05-22T07:53:58.724Z,13.03
2019-05-22T07:54:58.704Z,13.06
2019-05-22T07:55:58.693Z,13.00
2019-05-22T07:56:58.681Z,13.06
2019-05-22T07:57:58.672Z,13.06
2019-05-22T07:58:59.112Z,13.00
2019-05-22T07:59:58.656Z,13.04
2019-05-22T08:00:58.756Z,13.09
2019-05-22T08:01:58.626Z,13.07
2019-05-22T08:02:58.615Z,13.12
2019-05-22T08:03:58.604Z,13.20
2019-05-22T08:04:58.610Z,13.18
2019-05-22T08:05:58.598Z,13.17
2019-05-22T08:06:58.580Z,13.24
2019-05-22T08:07:58.561Z,13.24
2019-05-22T08:08:58.553Z,13.24
2019-05-22T08:09:58.540Z,13.30
2019-05-22T08:10:58.540Z,13.24
2019-05-22T08:11:58.519Z,13.25
2019-05-22T08:12:58.509Z,13.30
2019-05-22T08:13:58.502Z,13.32
2019-05-22T08:14:58.487Z,13.30
2019-05-22T08:15:58.504Z,13.36
2019-05-22T08:16:58.481Z,13.25
2019-05-22T08:17:58.458Z,13.21
2019-05-22T08:18:58.445Z,13.25
2019-05-22T08:19:58.433Z,13.30
2019-05-22T08:20:58.574Z,13.32
2019-05-22T08:22:06.692Z,13.22
2019-05-22T08:22:59.415Z,13.36
2019-05-22T08:23:58.393Z,13.33
2019-05-22T08:24:58.386Z,13.41
2019-05-22T08:25:58.574Z,13.40
2019-05-22T08:26:58.415Z,13.47
2019-05-22T08:27:58.347Z,13.41
2019-05-22T08:28:58.348Z,13.36
2019-05-22T08:29:58.326Z,13.32
2019-05-22T08:30:58.321Z,13.30
2019-05-22T08:31:58.305Z,13.21
2019-05-22T08:32:58.296Z,13.22
2019-05-22T08:33:58.283Z,13.17
2019-05-22T08:34:58.284Z,13.14
2019-05-22T08:35:58.274Z,13.22
2019-05-22T08:36:58.251Z,13.18
2019-05-22T08:37:58.243Z,13.22
2019-05-22T08:38:58.230Z,13.21
2019-05-22T08:39:58.219Z,13.21
2019-05-22T08:40:58.228Z,13.21
2019-05-22T08:41:58.230Z,13.25
2019-05-22T08:42:58.487Z,13.25
2019-05-22T08:44:15.489Z,13.29
2019-05-22T08:44:59.164Z,13.33
2019-05-22T08:45:58.156Z,13.37
2019-05-22T08:46:58.166Z,13.40
2019-05-22T08:47:58.224Z,13.43
2019-05-22T08:48:58.123Z,13.47
2019-05-22T08:49:58.112Z,13.49
2019-05-22T08:50:58.139Z,13.49
2019-05-22T08:51:58.088Z,13.51
2019-05-22T08:52:58.091Z,13.51
2019-05-22T08:53:58.067Z,13.54
2019-05-22T08:54:58.059Z,13.55
2019-05-22T08:55:58.046Z,13.52
2019-05-22T08:56:58.034Z,13.46
2019-05-22T08:57:58.025Z,13.46
2019-05-22T08:58:58.029Z,13.51
2019-05-22T08:59:58.001Z,13.47
2019-05-22T09:00:57.990Z,13.49
2019-05-22T09:01:57.993Z,13.52
2019-05-22T09:02:57.976Z,13.55
2019-05-22T09:03:57.956Z,13.47
2019-05-22T09:04:57.957Z,13.54
2019-05-22T09:05:57.938Z,13.51
2019-05-22T09:06:57.950Z,13.51
2019-05-22T09:07:57.919Z,13.54
2019-05-22T09:08:57.907Z,13.54
2019-05-22T09:09:57.891Z,13.52
2019-05-22T09:10:57.892Z,13.63
2019-05-22T09:11:57.870Z,13.67
2019-05-22T09:12:57.865Z,13.62
2019-05-22T09:13:57.850Z,13.63
2019-05-22T09:14:57.869Z,13.65
2019-05-22T09:16:01.673Z,13.79
2019-05-22T09:16:57.830Z,13.80
2019-05-22T09:17:57.803Z,13.77
2019-05-22T09:18:57.792Z,13.77
2019-05-22T09:19:57.782Z,13.70
2019-05-22T09:20:57.770Z,13.67
2019-05-22T09:21:57.758Z,13.70
2019-05-22T09:22:57.760Z,13.67
2019-05-22T09:23:57.737Z,13.71
2019-05-22T09:24:57.726Z,13.69
2019-05-22T09:25:57.714Z,13.77
2019-05-22T09:26:57.706Z,13.81
2019-05-22T09:27:57.692Z,13.79
2019-05-22T09:28:57.693Z,13.73
2019-05-22T09:29:57.671Z,13.89
2019-05-22T09:30:57.687Z,13.87
2019-05-22T09:31:57.651Z,13.87
2019-05-22T09:32:57.638Z,13.92
2019-05-22T09:33:57.628Z,13.99
2019-05-22T09:34:57.625Z,13.94
2019-05-22T09:35:57.606Z,13.98
2019-05-22T09:36:57.595Z,14.02
2019-05-22T09:37:57.584Z,14.17
2019-05-22T09:38:57.580Z,14.13
2019-05-22T09:39:57.562Z,14.07
2019-05-22T09:40:57.562Z,14.17
2019-05-22T09:41:57.540Z,14.04
2019-05-22T09:42:57.529Z,14.12
2019-05-22T09:43:57.519Z,14.07
2019-05-22T09:44:57.508Z,14.12
2019-05-22T09:45:57.500Z,14.19
2019-05-22T09:46:57.496Z,14.21
2019-05-22T09:47:57.477Z,14.27
2019-05-22T09:48:57.467Z,14.29
2019-05-22T09:49:57.478Z,14.39
2019-05-22T09:50:57.445Z,14.52
2019-05-22T09:51:57.434Z,14.56
2019-05-22T09:52:58.405Z,14.57
2019-05-22T09:53:57.412Z,14.64
2019-05-22T09:54:57.401Z,14.68
2019-05-22T09:55:57.409Z,14.81
2019-05-22T09:56:57.394Z,14.80
2019-05-22T09:57:57.370Z,14.94
2019-05-22T09:58:57.377Z,15.03
2019-05-22T09:59:57.365Z,15.08
2019-05-22T10:00:57.336Z,15.06
2019-05-22T10:01:57.325Z,15.01
2019-05-22T10:02:57.321Z,15.19
2019-05-22T10:03:57.313Z,15.21
2019-05-22T10:04:57.319Z,15.27
2019-05-22T10:05:57.433Z,15.30
2019-05-22T10:06:57.271Z,15.38
2019-05-22T10:08:01.020Z,15.42
2019-05-22T10:08:57.247Z,15.57
2019-05-22T10:09:57.241Z,15.48
2019-05-22T10:10:57.236Z,15.52
2019-05-22T10:11:57.217Z,15.51
2019-05-22T10:12:57.209Z,15.49
2019-05-22T10:13:57.199Z,15.46
2019-05-22T10:14:57.243Z,15.39
2019-05-22T10:15:57.173Z,15.39
2019-05-22T10:16:57.171Z,15.43
2019-05-22T10:17:57.158Z,15.41
2019-05-22T10:18:57.143Z,15.45
2019-05-22T10:19:57.130Z,15.45
2019-05-22T10:20:57.121Z,15.56
2019-05-22T10:21:57.111Z,15.68
2019-05-22T10:23:12.483Z,15.82
2019-05-22T10:23:58.085Z,15.76
2019-05-22T10:25:13.979Z,15.88
2019-05-22T10:25:58.064Z,15.88
2019-05-22T10:26:57.061Z,15.88
2019-05-22T10:27:59.363Z,15.97
2019-05-22T10:28:57.042Z,16.03
2019-05-22T10:29:57.024Z,16.11
2019-05-22T10:30:57.889Z,16.18
2019-05-22T10:31:56.999Z,16.20
2019-05-22T10:32:56.997Z,16.09
2019-05-22T10:33:56.978Z,16.09
2019-05-22T10:34:57.824Z,16.15
2019-05-22T10:35:56.966Z,16.12
2019-05-22T10:36:56.946Z,16.20
2019-05-22T10:37:56.935Z,16.23
2019-05-22T10:38:56.923Z,16.30
2019-05-22T10:39:56.913Z,16.50
2019-05-22T10:40:59.385Z,16.68
2019-05-22T10:41:56.893Z,16.83
2019-05-22T10:42:56.902Z,16.86
2019-05-22T10:43:56.870Z,16.92
2019-05-22T10:44:56.866Z,16.95
2019-05-22T10:45:56.845Z,17.07
2019-05-22T10:46:56.858Z,17.15
2019-05-22T10:47:56.829Z,17.14
2019-05-22T10:48:56.818Z,17.30
2019-05-22T10:49:56.812Z,17.29
2019-05-22T10:50:56.791Z,17.13
2019-05-22T10:51:56.784Z,17.03
2019-05-22T10:52:56.778Z,16.99
2019-05-22T10:53:56.762Z,16.99
2019-05-22T10:54:56.749Z,16.73
2019-05-22T10:55:56.737Z,16.55
2019-05-22T10:56:56.728Z,16.67
2019-05-22T10:57:56.727Z,16.59
2019-05-22T10:58:56.725Z,16.53
2019-05-22T10:59:56.697Z,16.58
2019-05-22T11:00:56.688Z,16.58
2019-05-22T11:01:56.677Z,16.62
2019-05-22T11:02:56.671Z,16.74
2019-05-22T11:03:56.651Z,16.98
2019-05-22T11:04:56.660Z,17.11
2019-05-22T11:06:07.044Z,17.32
2019-05-22T11:06:57.617Z,17.43
2019-05-22T11:07:56.611Z,17.33
2019-05-22T11:08:56.597Z,17.26
2019-05-22T11:09:56.587Z,17.35
2019-05-22T11:10:56.586Z,17.30
2019-05-22T11:11:56.568Z,17.38
2019-05-22T11:12:56.554Z,17.33
2019-05-22T11:14:01.404Z,17.18
2019-05-22T11:14:57.532Z,16.88
2019-05-22T11:15:56.534Z,16.65
2019-05-22T11:16:56.541Z,16.49
2019-05-22T11:17:56.502Z,16.35
2019-05-22T11:18:56.493Z,16.45
2019-05-22T11:19:56.489Z,16.56
2019-05-22T11:20:56.469Z,16.74
2019-05-22T11:21:57.222Z,16.89
2019-05-22T11:22:56.458Z,17.06
2019-05-22T11:23:56.435Z,17.15
2019-05-22T11:24:56.426Z,17.29
2019-05-22T11:25:56.413Z,17.43
2019-05-22T11:26:56.400Z,17.51
2019-05-22T11:27:56.391Z,17.69
2019-05-22T11:28:56.432Z,17.87
2019-05-22T11:29:56.369Z,17.85
2019-05-22T11:30:56.356Z,17.88
2019-05-22T11:31:56.348Z,17.94
2019-05-22T11:32:56.336Z,17.85
2019-05-22T11:33:56.335Z,17.88
2019-05-22T11:34:56.326Z,17.89
2019-05-22T11:35:56.303Z,17.99
2019-05-22T11:36:56.301Z,18.02
2019-05-22T11:37:56.282Z,17.88
2019-05-22T11:38:56.287Z,17.63
2019-05-22T11:39:56.268Z,17.66
2019-05-22T11:40:56.260Z,17.74
2019-05-22T11:41:56.239Z,17.82
2019-05-22T11:42:56.291Z,17.87
2019-05-22T11:43:56.220Z,18.03
2019-05-22T11:44:56.207Z,18.09
2019-05-22T11:45:56.197Z,18.09
2019-05-22T11:46:56.194Z,18.22
2019-05-22T11:47:56.175Z,18.19
2019-05-22T11:48:56.162Z,18.29
2019-05-22T11:49:56.156Z,18.33
2019-05-22T11:50:56.147Z,18.39
2019-05-22T11:51:56.142Z,18.46
2019-05-22T11:52:56.144Z,18.43
2019-05-22T11:54:08.671Z,18.47
2019-05-22T11:54:57.102Z,18.49
2019-05-22T11:55:56.089Z,18.57
2019-05-22T11:56:56.077Z,18.61
2019-05-22T11:57:56.066Z,18.64
2019-05-22T11:58:56.085Z,18.61
2019-05-22T11:59:56.044Z,18.70
2019-05-22T12:00:56.035Z,18.64
2019-05-22T12:01:56.024Z,18.70
2019-05-22T12:02:56.019Z,18.73
2019-05-22T12:03:56.005Z,18.83
2019-05-22T12:04:56.004Z,18.84
2019-05-22T12:05:55.979Z,18.84
2019-05-22T12:06:55.969Z,18.50
2019-05-22T12:07:55.959Z,18.29
2019-05-22T12:08:55.949Z,18.29
2019-05-22T12:09:55.936Z,18.33
2019-05-22T12:10:55.939Z,18.47
2019-05-22T12:11:55.915Z,18.57
2019-05-22T12:12:55.905Z,18.68
2019-05-22T12:13:55.893Z,18.84
2019-05-22T12:14:55.883Z,18.83
2019-05-22T12:15:55.871Z,18.76
2019-05-22T12:16:55.872Z,18.83
2019-05-22T12:17:55.851Z,18.76
2019-05-22T12:18:58.708Z,18.76
2019-05-22T12:19:55.828Z,18.77
2019-05-22T12:20:55.819Z,18.65
2019-05-22T12:21:55.807Z,18.58
2019-05-22T12:22:55.819Z,18.62
2019-05-22T12:23:55.795Z,18.70
2019-05-22T12:24:55.775Z,18.65
2019-05-22T12:25:55.765Z,18.54
2019-05-22T12:26:55.758Z,18.61
2019-05-22T12:27:55.743Z,18.55
2019-05-22T12:28:55.742Z,18.64
2019-05-22T12:29:55.721Z,18.57
2019-05-22T12:30:55.711Z,18.64
2019-05-22T12:31:55.699Z,18.46
2019-05-22T12:32:55.693Z,18.40
2019-05-22T12:33:55.678Z,18.49
2019-05-22T12:34:55.688Z,18.49
2019-05-22T12:35:55.659Z,18.54
2019-05-22T12:36:55.648Z,18.61
2019-05-22T12:37:55.636Z,18.62
2019-05-22T12:38:55.628Z,18.61
2019-05-22T12:39:55.630Z,18.67
2019-05-22T12:40:55.616Z,18.55
2019-05-22T12:41:55.597Z,18.50
2019-05-22T12:42:55.587Z,18.49
2019-05-22T12:43:55.573Z,18.67
2019-05-22T12:44:55.562Z,18.76
2019-05-22T12:45:55.551Z,18.95
2019-05-22T12:46:55.557Z,18.97
2019-05-22T12:47:55.530Z,18.94
2019-05-22T12:48:55.521Z,18.98
2019-05-22T12:49:55.510Z,18.97
2019-05-22T12:50:55.503Z,19.02
2019-05-22T12:51:55.493Z,19.15